sensor_id;sensor_type;location;lat;lon;timestamp;P1;durP1;ratioP1;P2;durP2;ratioP2
60979;SDS011;46851;49.160;8.980;2023-04-25T00:00:47;7.28;;;5.28;;
60979;SDS011;46851;49.160;8.980;2023-04-25T00:03:13;8.13;;;5.93;;
60979;SDS011;46851;49.160;8.980;2023-04-25T00:05:39;7.45;;;5.60;;
60979;SDS011;46851;49.160;8.980;2023-04-25T00:08:05;9.77;;;6.00;;
60979;SDS011;46851;49.160;8.980;2023-04-25T00:10:31;7.82;;;4.88;;
60979;SDS011;46851;49.160;8.980;2023-04-25T00:12:57;5.95;;;4.85;;
60979;SDS011;46851;49.160;8.980;2023-04-25T00:15:23;6.25;;;5.22;;
60979;SDS011;46851;49.160;8.980;2023-04-25T00:17:50;8.40;;;5.60;;
60979;SDS011;46851;49.160;8.980;2023-04-25T00:20:17;6.30;;;4.82;;
60979;SDS011;46851;49.160;8.980;2023-04-25T00:22:43;6.78;;;5.00;;
60979;SDS011;46851;49.160;8.980;2023-04-25T00:25:10;7.70;;;4.93;;
60979;SDS011;46851;49.160;8.980;2023-04-25T00:27:36;8.05;;;4.85;;
60979;SDS011;46851;49.160;8.980;2023-04-25T00:30:04;6.90;;;4.95;;
60979;SDS011;46851;49.160;8.980;2023-04-25T00:32:30;5.80;;;4.50;;
60979;SDS011;46851;49.160;8.980;2023-04-25T00:34:56;7.65;;;5.03;;
60979;SDS011;46851;49.160;8.980;2023-04-25T00:37:23;6.32;;;5.15;;
60979;SDS011;46851;49.160;8.980;2023-04-25T00:39:49;8.70;;;5.43;;
60979;SDS011;46851;49.160;8.980;2023-04-25T00:42:15;8.90;;;4.95;;
60979;SDS011;46851;49.160;8.980;2023-04-25T00:44:41;7.95;;;5.40;;
60979;SDS011;46851;49.160;8.980;2023-04-25T00:47:07;7.45;;;5.38;;
60979;SDS011;46851;49.160;8.980;2023-04-25T00:49:33;8.13;;;5.53;;
60979;SDS011;46851;49.160;8.980;2023-04-25T00:51:59;9.52;;;5.65;;
60979;SDS011;46851;49.160;8.980;2023-04-25T00:54:25;8.57;;;5.05;;
60979;SDS011;46851;49.160;8.980;2023-04-25T00:56:51;8.05;;;5.70;;
60979;SDS011;46851;49.160;8.980;2023-04-25T00:59:18;9.23;;;5.40;;
60979;SDS011;46851;49.160;8.980;2023-04-25T01:01:45;10.85;;;5.95;;
60979;SDS011;46851;49.160;8.980;2023-04-25T01:59:35;8.32;;;6.13;;
60979;SDS011;46851;49.160;8.980;2023-04-25T02:02:02;10.57;;;6.03;;
60979;SDS011;46851;49.160;8.980;2023-04-25T02:04:29;9.98;;;6.40;;
60979;SDS011;46851;49.160;8.980;2023-04-25T02:06:55;9.45;;;6.53;;
60979;SDS011;46851;49.160;8.980;2023-04-25T02:09:21;9.40;;;6.25;;
60979;SDS011;46851;49.160;8.980;2023-04-25T02:11:47;9.30;;;6.13;;
60979;SDS011;46851;49.160;8.980;2023-04-25T02:14:13;8.20;;;6.35;;
60979;SDS011;46851;49.160;8.980;2023-04-25T02:16:39;8.25;;;5.63;;
60979;SDS011;46851;49.160;8.980;2023-04-25T02:19:05;10.10;;;5.72;;
60979;SDS011;46851;49.160;8.980;2023-04-25T02:21:31;8.30;;;5.68;;
60979;SDS011;46851;49.160;8.980;2023-04-25T02:24:00;7.18;;;5.80;;
60979;SDS011;46851;49.160;8.980;2023-04-25T02:26:26;7.07;;;5.60;;
60979;SDS011;46851;49.160;8.980;2023-04-25T02:28:52;7.45;;;5.18;;
60979;SDS011;46851;49.160;8.980;2023-04-25T02:31:18;6.07;;;4.90;;
60979;SDS011;46851;49.160;8.980;2023-04-25T02:33:44;13.05;;;5.85;;
60979;SDS011;46851;49.160;8.980;2023-04-25T02:36:10;10.60;;;5.22;;
60979;SDS011;46851;49.160;8.980;2023-04-25T02:38:36;11.82;;;5.53;;
60979;SDS011;46851;49.160;8.980;2023-04-25T02:41:02;9.95;;;5.07;;
60979;SDS011;46851;49.160;8.980;2023-04-25T02:43:28;11.52;;;5.68;;
60979;SDS011;46851;49.160;8.980;2023-04-25T02:45:54;10.80;;;5.47;;
60979;SDS011;46851;49.160;8.980;2023-04-25T02:48:20;6.93;;;5.50;;
60979;SDS011;46851;49.160;8.980;2023-04-25T02:50:46;8.05;;;5.60;;
60979;SDS011;46851;49.160;8.980;2023-04-25T02:53:12;9.80;;;5.50;;
60979;SDS011;46851;49.160;8.980;2023-04-25T02:55:38;10.23;;;5.28;;
60979;SDS011;46851;49.160;8.980;2023-04-25T02:58:04;9.07;;;5.40;;
60979;SDS011;46851;49.160;8.980;2023-04-25T03:00:30;9.13;;;5.35;;
60979;SDS011;46851;49.160;8.980;2023-04-25T03:02:57;12.02;;;5.40;;
60979;SDS011;46851;49.160;8.980;2023-04-25T03:05:22;8.48;;;5.45;;
60979;SDS011;46851;49.160;8.980;2023-04-25T03:07:48;8.52;;;5.53;;
60979;SDS011;46851;49.160;8.980;2023-04-25T03:10:14;8.85;;;5.43;;
60979;SDS011;46851;49.160;8.980;2023-04-25T03:12:40;7.97;;;5.57;;
60979;SDS011;46851;49.160;8.980;2023-04-25T03:15:06;9.05;;;6.10;;
60979;SDS011;46851;49.160;8.980;2023-04-25T03:17:32;8.90;;;5.82;;
60979;SDS011;46851;49.160;8.980;2023-04-25T03:19:59;8.32;;;6.15;;
60979;SDS011;46851;49.160;8.980;2023-04-25T03:22:25;11.38;;;6.38;;
60979;SDS011;46851;49.160;8.980;2023-04-25T03:24:51;8.02;;;6.07;;
60979;SDS011;46851;49.160;8.980;2023-04-25T03:27:17;9.45;;;6.30;;
60979;SDS011;46851;49.160;8.980;2023-04-25T03:29:43;7.65;;;5.90;;
60979;SDS011;46851;49.160;8.980;2023-04-25T03:32:09;10.93;;;6.22;;
60979;SDS011;46851;49.160;8.980;2023-04-25T03:34:35;10.75;;;6.72;;
60979;SDS011;46851;49.160;8.980;2023-04-25T03:37:01;11.65;;;6.55;;
60979;SDS011;46851;49.160;8.980;2023-04-25T03:39:27;10.73;;;6.60;;
60979;SDS011;46851;49.160;8.980;2023-04-25T03:41:53;10.20;;;6.93;;
60979;SDS011;46851;49.160;8.980;2023-04-25T03:44:19;11.05;;;6.88;;
60979;SDS011;46851;49.160;8.980;2023-04-25T03:46:45;9.48;;;6.93;;
60979;SDS011;46851;49.160;8.980;2023-04-25T03:49:12;9.60;;;6.82;;
60979;SDS011;46851;49.160;8.980;2023-04-25T03:51:39;11.45;;;7.05;;
60979;SDS011;46851;49.160;8.980;2023-04-25T03:54:04;10.25;;;7.57;;
60979;SDS011;46851;49.160;8.980;2023-04-25T03:56:30;12.25;;;7.50;;
60979;SDS011;46851;49.160;8.980;2023-04-25T03:58:56;9.40;;;7.13;;
60979;SDS011;46851;49.160;8.980;2023-04-25T04:01:24;12.82;;;7.80;;
60979;SDS011;46851;49.160;8.980;2023-04-25T04:03:50;13.20;;;8.23;;
60979;SDS011;46851;49.160;8.980;2023-04-25T04:06:16;11.70;;;7.75;;
60979;SDS011;46851;49.160;8.980;2023-04-25T04:08:42;11.57;;;7.93;;
60979;SDS011;46851;49.160;8.980;2023-04-25T04:11:08;10.75;;;8.35;;
60979;SDS011;46851;49.160;8.980;2023-04-25T04:13:34;12.10;;;8.52;;
60979;SDS011;46851;49.160;8.980;2023-04-25T04:16:00;11.88;;;8.10;;
60979;SDS011;46851;49.160;8.980;2023-04-25T04:18:26;14.98;;;8.20;;
60979;SDS011;46851;49.160;8.980;2023-04-25T04:20:52;12.85;;;8.85;;
60979;SDS011;46851;49.160;8.980;2023-04-25T04:23:18;12.98;;;9.07;;
60979;SDS011;46851;49.160;8.980;2023-04-25T04:25:45;15.73;;;8.48;;
60979;SDS011;46851;49.160;8.980;2023-04-25T04:28:11;14.50;;;9.05;;
60979;SDS011;46851;49.160;8.980;2023-04-25T04:30:38;14.15;;;8.93;;
60979;SDS011;46851;49.160;8.980;2023-04-25T04:33:06;16.45;;;10.10;;
60979;SDS011;46851;49.160;8.980;2023-04-25T04:35:32;17.98;;;9.80;;
60979;SDS011;46851;49.160;8.980;2023-04-25T04:37:58;15.50;;;9.32;;
60979;SDS011;46851;49.160;8.980;2023-04-25T04:40:24;16.63;;;9.77;;
60979;SDS011;46851;49.160;8.980;2023-04-25T04:42:50;26.55;;;10.10;;
60979;SDS011;46851;49.160;8.980;2023-04-25T04:45:18;20.13;;;9.50;;
60979;SDS011;46851;49.160;8.980;2023-04-25T04:47:44;24.13;;;10.13;;
60979;SDS011;46851;49.160;8.980;2023-04-25T04:50:10;21.52;;;9.63;;
60979;SDS011;46851;49.160;8.980;2023-04-25T04:52:38;24.33;;;10.50;;
60979;SDS011;46851;49.160;8.980;2023-04-25T04:55:04;27.20;;;10.88;;
60979;SDS011;46851;49.160;8.980;2023-04-25T04:57:31;25.92;;;10.32;;
60979;SDS011;46851;49.160;8.980;2023-04-25T04:59:58;35.05;;;11.88;;
60979;SDS011;46851;49.160;8.980;2023-04-25T05:02:24;17.70;;;10.25;;
60979;SDS011;46851;49.160;8.980;2023-04-25T05:04:50;22.23;;;9.43;;
60979;SDS011;46851;49.160;8.980;2023-04-25T05:07:16;19.45;;;10.07;;
60979;SDS011;46851;49.160;8.980;2023-04-25T05:09:42;18.38;;;9.60;;
60979;SDS011;46851;49.160;8.980;2023-04-25T05:12:08;22.50;;;10.13;;
60979;SDS011;46851;49.160;8.980;2023-04-25T05:14:35;19.65;;;9.05;;
60979;SDS011;46851;49.160;8.980;2023-04-25T05:17:01;17.50;;;10.10;;
60979;SDS011;46851;49.160;8.980;2023-04-25T05:19:29;21.45;;;10.48;;
60979;SDS011;46851;49.160;8.980;2023-04-25T05:21:55;24.65;;;11.18;;
60979;SDS011;46851;49.160;8.980;2023-04-25T05:24:21;26.00;;;11.38;;
60979;SDS011;46851;49.160;8.980;2023-04-25T05:26:47;20.55;;;10.73;;
60979;SDS011;46851;49.160;8.980;2023-04-25T05:29:13;26.88;;;10.85;;
60979;SDS011;46851;49.160;8.980;2023-04-25T05:31:39;20.70;;;10.23;;
60979;SDS011;46851;49.160;8.980;2023-04-25T05:34:05;18.15;;;8.95;;
60979;SDS011;46851;49.160;8.980;2023-04-25T05:36:31;19.40;;;10.02;;
60979;SDS011;46851;49.160;8.980;2023-04-25T05:38:57;18.27;;;11.05;;
60979;SDS011;46851;49.160;8.980;2023-04-25T05:41:23;12.80;;;8.68;;
60979;SDS011;46851;49.160;8.980;2023-04-25T05:43:49;12.23;;;8.70;;
60979;SDS011;46851;49.160;8.980;2023-04-25T05:46:15;12.88;;;8.30;;
60979;SDS011;46851;49.160;8.980;2023-04-25T05:48:42;13.85;;;8.65;;
60979;SDS011;46851;49.160;8.980;2023-04-25T05:51:08;12.23;;;8.18;;
60979;SDS011;46851;49.160;8.980;2023-04-25T05:53:35;18.17;;;9.65;;
60979;SDS011;46851;49.160;8.980;2023-04-25T05:56:01;21.13;;;9.07;;
60979;SDS011;46851;49.160;8.980;2023-04-25T05:58:27;21.30;;;9.55;;
60979;SDS011;46851;49.160;8.980;2023-04-25T06:00:54;27.05;;;10.23;;
60979;SDS011;46851;49.160;8.980;2023-04-25T06:03:20;23.10;;;9.95;;
60979;SDS011;46851;49.160;8.980;2023-04-25T06:05:46;19.02;;;8.60;;
60979;SDS011;46851;49.160;8.980;2023-04-25T06:08:12;19.60;;;8.93;;
60979;SDS011;46851;49.160;8.980;2023-04-25T06:10:38;26.48;;;9.38;;
60979;SDS011;46851;49.160;8.980;2023-04-25T06:13:04;21.20;;;9.32;;
60979;SDS011;46851;49.160;8.980;2023-04-25T06:15:30;22.27;;;8.50;;
60979;SDS011;46851;49.160;8.980;2023-04-25T06:17:59;23.13;;;9.10;;
60979;SDS011;46851;49.160;8.980;2023-04-25T06:20:25;27.55;;;9.77;;
60979;SDS011;46851;49.160;8.980;2023-04-25T06:22:51;26.35;;;8.55;;
60979;SDS011;46851;49.160;8.980;2023-04-25T06:25:18;15.77;;;8.20;;
60979;SDS011;46851;49.160;8.980;2023-04-25T06:27:44;16.92;;;8.70;;
60979;SDS011;46851;49.160;8.980;2023-04-25T06:30:10;9.68;;;7.22;;
60979;SDS011;46851;49.160;8.980;2023-04-25T06:32:37;10.00;;;7.00;;
60979;SDS011;46851;49.160;8.980;2023-04-25T06:35:03;15.20;;;7.95;;
60979;SDS011;46851;49.160;8.980;2023-04-25T06:37:29;9.55;;;7.15;;
60979;SDS011;46851;49.160;8.980;2023-04-25T06:39:55;9.82;;;6.88;;
60979;SDS011;46851;49.160;8.980;2023-04-25T06:42:21;9.50;;;7.00;;
60979;SDS011;46851;49.160;8.980;2023-04-25T06:44:47;8.10;;;6.63;;
60979;SDS011;46851;49.160;8.980;2023-04-25T06:47:13;14.75;;;7.85;;
60979;SDS011;46851;49.160;8.980;2023-04-25T06:49:39;17.05;;;7.75;;
60979;SDS011;46851;49.160;8.980;2023-04-25T06:52:06;12.50;;;7.53;;
60979;SDS011;46851;49.160;8.980;2023-04-25T06:54:33;12.10;;;7.93;;
60979;SDS011;46851;49.160;8.980;2023-04-25T06:56:59;10.88;;;7.55;;
60979;SDS011;46851;49.160;8.980;2023-04-25T06:59:26;11.57;;;7.70;;
60979;SDS011;46851;49.160;8.980;2023-04-25T07:01:52;8.10;;;6.47;;
60979;SDS011;46851;49.160;8.980;2023-04-25T07:04:18;22.40;;;9.10;;
60979;SDS011;46851;49.160;8.980;2023-04-25T07:06:44;27.15;;;8.43;;
60979;SDS011;46851;49.160;8.980;2023-04-25T07:09:12;16.00;;;7.05;;
60979;SDS011;46851;49.160;8.980;2023-04-25T07:11:38;12.38;;;7.55;;
60979;SDS011;46851;49.160;8.980;2023-04-25T07:14:04;18.23;;;8.05;;
60979;SDS011;46851;49.160;8.980;2023-04-25T07:16:31;17.67;;;7.93;;
60979;SDS011;46851;49.160;8.980;2023-04-25T07:18:57;19.38;;;7.50;;
60979;SDS011;46851;49.160;8.980;2023-04-25T07:21:24;14.43;;;7.60;;
60979;SDS011;46851;49.160;8.980;2023-04-25T07:23:50;10.45;;;7.28;;
60979;SDS011;46851;49.160;8.980;2023-04-25T07:26:16;10.93;;;7.07;;
60979;SDS011;46851;49.160;8.980;2023-04-25T07:28:42;9.52;;;7.10;;
60979;SDS011;46851;49.160;8.980;2023-04-25T07:31:08;11.57;;;7.47;;
60979;SDS011;46851;49.160;8.980;2023-04-25T07:33:34;11.98;;;7.15;;
60979;SDS011;46851;49.160;8.980;2023-04-25T07:36:00;11.63;;;7.78;;
60979;SDS011;46851;49.160;8.980;2023-04-25T07:38:26;16.13;;;7.63;;
60979;SDS011;46851;49.160;8.980;2023-04-25T07:40:52;10.70;;;7.72;;
60979;SDS011;46851;49.160;8.980;2023-04-25T07:43:18;12.32;;;7.72;;
60979;SDS011;46851;49.160;8.980;2023-04-25T07:45:45;11.88;;;8.63;;
60979;SDS011;46851;49.160;8.980;2023-04-25T07:48:11;11.15;;;8.48;;
60979;SDS011;46851;49.160;8.980;2023-04-25T07:50:37;15.60;;;8.75;;
60979;SDS011;46851;49.160;8.980;2023-04-25T07:53:03;14.70;;;8.82;;
60979;SDS011;46851;49.160;8.980;2023-04-25T07:55:29;13.23;;;9.65;;
60979;SDS011;46851;49.160;8.980;2023-04-25T07:57:55;14.50;;;9.27;;
60979;SDS011;46851;49.160;8.980;2023-04-25T08:00:21;13.15;;;9.40;;
60979;SDS011;46851;49.160;8.980;2023-04-25T08:02:47;11.98;;;8.82;;
60979;SDS011;46851;49.160;8.980;2023-04-25T08:05:13;13.27;;;8.68;;
60979;SDS011;46851;49.160;8.980;2023-04-25T08:07:40;16.17;;;9.48;;
60979;SDS011;46851;49.160;8.980;2023-04-25T08:10:07;14.93;;;9.07;;
60979;SDS011;46851;49.160;8.980;2023-04-25T08:12:33;14.00;;;9.02;;
60979;SDS011;46851;49.160;8.980;2023-04-25T08:14:59;16.83;;;10.63;;
60979;SDS011;46851;49.160;8.980;2023-04-25T08:17:25;12.70;;;9.68;;
60979;SDS011;46851;49.160;8.980;2023-04-25T08:19:51;14.60;;;9.45;;
60979;SDS011;46851;49.160;8.980;2023-04-25T08:22:17;12.18;;;8.75;;
60979;SDS011;46851;49.160;8.980;2023-04-25T08:24:43;19.88;;;9.93;;
60979;SDS011;46851;49.160;8.980;2023-04-25T08:27:09;12.10;;;8.88;;
60979;SDS011;46851;49.160;8.980;2023-04-25T08:29:36;13.82;;;8.93;;
60979;SDS011;46851;49.160;8.980;2023-04-25T08:32:02;19.25;;;9.23;;
60979;SDS011;46851;49.160;8.980;2023-04-25T08:34:28;12.40;;;8.70;;
60979;SDS011;46851;49.160;8.980;2023-04-25T08:36:54;21.02;;;10.63;;
60979;SDS011;46851;49.160;8.980;2023-04-25T08:39:20;13.40;;;8.70;;
60979;SDS011;46851;49.160;8.980;2023-04-25T08:41:46;11.63;;;8.55;;
60979;SDS011;46851;49.160;8.980;2023-04-25T08:44:12;13.90;;;8.20;;
60979;SDS011;46851;49.160;8.980;2023-04-25T08:46:39;13.32;;;8.57;;
60979;SDS011;46851;49.160;8.980;2023-04-25T08:49:06;12.05;;;8.30;;
60979;SDS011;46851;49.160;8.980;2023-04-25T08:51:32;14.00;;;9.48;;
60979;SDS011;46851;49.160;8.980;2023-04-25T08:54:16;14.20;;;10.73;;
60979;SDS011;46851;49.160;8.980;2023-04-25T08:56:45;14.98;;;8.40;;
60979;SDS011;46851;49.160;8.980;2023-04-25T08:59:13;12.88;;;6.65;;
60979;SDS011;46851;49.160;8.980;2023-04-25T09:01:39;12.23;;;7.35;;
60979;SDS011;46851;49.160;8.980;2023-04-25T09:04:05;11.95;;;7.55;;
60979;SDS011;46851;49.160;8.980;2023-04-25T09:06:31;11.52;;;7.30;;
60979;SDS011;46851;49.160;8.980;2023-04-25T09:09:07;14.52;;;8.10;;
60979;SDS011;46851;49.160;8.980;2023-04-25T09:11:34;9.50;;;7.05;;
60979;SDS011;46851;49.160;8.980;2023-04-25T09:14:16;10.02;;;6.90;;
60979;SDS011;46851;49.160;8.980;2023-04-25T09:16:58;16.00;;;8.00;;
60979;SDS011;46851;49.160;8.980;2023-04-25T09:19:35;11.68;;;8.07;;
60979;SDS011;46851;49.160;8.980;2023-04-25T09:22:03;13.95;;;9.10;;
60979;SDS011;46851;49.160;8.980;2023-04-25T09:26:56;17.77;;;12.38;;
60979;SDS011;46851;49.160;8.980;2023-04-25T09:29:29;16.20;;;8.75;;
60979;SDS011;46851;49.160;8.980;2023-04-25T09:32:17;12.65;;;6.55;;
60979;SDS011;46851;49.160;8.980;2023-04-25T09:34:44;8.55;;;5.60;;
60979;SDS011;46851;49.160;8.980;2023-04-25T09:37:13;7.15;;;5.40;;
60979;SDS011;46851;49.160;8.980;2023-04-25T09:39:44;7.65;;;5.15;;
60979;SDS011;46851;49.160;8.980;2023-04-25T09:42:10;7.97;;;5.22;;
60979;SDS011;46851;49.160;8.980;2023-04-25T09:44:36;9.18;;;4.65;;
60979;SDS011;46851;49.160;8.980;2023-04-25T09:47:02;8.93;;;4.70;;
60979;SDS011;46851;49.160;8.980;2023-04-25T09:49:28;6.72;;;4.60;;
60979;SDS011;46851;49.160;8.980;2023-04-25T09:51:57;6.65;;;4.93;;
60979;SDS011;46851;49.160;8.980;2023-04-25T09:54:24;6.97;;;5.03;;
60979;SDS011;46851;49.160;8.980;2023-04-25T09:56:51;9.18;;;5.88;;
60979;SDS011;46851;49.160;8.980;2023-04-25T09:59:19;9.68;;;6.30;;
60979;SDS011;46851;49.160;8.980;2023-04-25T10:01:46;10.07;;;5.97;;
60979;SDS011;46851;49.160;8.980;2023-04-25T10:04:13;11.52;;;6.97;;
60979;SDS011;46851;49.160;8.980;2023-04-25T10:06:41;10.15;;;7.05;;
60979;SDS011;46851;49.160;8.980;2023-04-25T10:09:08;12.68;;;8.02;;
60979;SDS011;46851;49.160;8.980;2023-04-25T10:11:34;14.95;;;8.00;;
60979;SDS011;46851;49.160;8.980;2023-04-25T10:14:00;10.50;;;7.38;;
60979;SDS011;46851;49.160;8.980;2023-04-25T10:16:27;14.35;;;8.55;;
60979;SDS011;46851;49.160;8.980;2023-04-25T10:18:53;13.27;;;8.80;;
60979;SDS011;46851;49.160;8.980;2023-04-25T10:21:21;16.10;;;9.70;;
60979;SDS011;46851;49.160;8.980;2023-04-25T10:23:48;15.88;;;11.00;;
60979;SDS011;46851;49.160;8.980;2023-04-25T10:26:15;17.27;;;11.23;;
60979;SDS011;46851;49.160;8.980;2023-04-25T10:28:57;14.82;;;10.75;;
60979;SDS011;46851;49.160;8.980;2023-04-25T10:31:24;13.10;;;8.80;;
60979;SDS011;46851;49.160;8.980;2023-04-25T10:33:50;15.95;;;7.90;;
60979;SDS011;46851;49.160;8.980;2023-04-25T10:36:20;14.90;;;7.00;;
60979;SDS011;46851;49.160;8.980;2023-04-25T10:38:47;12.15;;;7.78;;
60979;SDS011;46851;49.160;8.980;2023-04-25T10:41:15;18.05;;;7.95;;
60979;SDS011;46851;49.160;8.980;2023-04-25T10:43:44;14.90;;;7.78;;
60979;SDS011;46851;49.160;8.980;2023-04-25T10:46:17;11.38;;;6.72;;
60979;SDS011;46851;49.160;8.980;2023-04-25T10:48:45;10.07;;;5.68;;
60979;SDS011;46851;49.160;8.980;2023-04-25T10:51:15;9.65;;;5.50;;
60979;SDS011;46851;49.160;8.980;2023-04-25T10:53:43;8.48;;;4.75;;
60979;SDS011;46851;49.160;8.980;2023-04-25T10:56:19;11.57;;;5.47;;
60979;SDS011;46851;49.160;8.980;2023-04-25T10:58:46;8.48;;;5.55;;
60979;SDS011;46851;49.160;8.980;2023-04-25T11:01:12;13.13;;;6.22;;
60979;SDS011;46851;49.160;8.980;2023-04-25T11:03:42;9.23;;;5.72;;
60979;SDS011;46851;49.160;8.980;2023-04-25T11:09:02;11.85;;;6.43;;
60979;SDS011;46851;49.160;8.980;2023-04-25T11:11:28;12.45;;;7.15;;
60979;SDS011;46851;49.160;8.980;2023-04-25T11:13:55;13.10;;;6.32;;
60979;SDS011;46851;49.160;8.980;2023-04-25T11:16:23;13.32;;;7.40;;
60979;SDS011;46851;49.160;8.980;2023-04-25T11:18:50;13.75;;;6.90;;
60979;SDS011;46851;49.160;8.980;2023-04-25T11:21:16;12.98;;;7.10;;
60979;SDS011;46851;49.160;8.980;2023-04-25T11:23:44;15.07;;;6.50;;
60979;SDS011;46851;49.160;8.980;2023-04-25T11:26:10;13.57;;;6.88;;
60979;SDS011;46851;49.160;8.980;2023-04-25T11:28:36;12.73;;;6.03;;
60979;SDS011;46851;49.160;8.980;2023-04-25T11:31:02;10.77;;;6.53;;
60979;SDS011;46851;49.160;8.980;2023-04-25T11:33:28;11.80;;;6.03;;
60979;SDS011;46851;49.160;8.980;2023-04-25T11:35:55;16.58;;;6.68;;
60979;SDS011;46851;49.160;8.980;2023-04-25T11:38:22;13.63;;;6.75;;
60979;SDS011;46851;49.160;8.980;2023-04-25T11:40:54;15.10;;;6.55;;
60979;SDS011;46851;49.160;8.980;2023-04-25T11:43:21;13.80;;;6.75;;
60979;SDS011;46851;49.160;8.980;2023-04-25T11:45:50;13.65;;;6.32;;
60979;SDS011;46851;49.160;8.980;2023-04-25T11:48:17;11.18;;;5.95;;
60979;SDS011;46851;49.160;8.980;2023-04-25T11:50:43;13.10;;;6.20;;
60979;SDS011;46851;49.160;8.980;2023-04-25T11:53:10;12.15;;;6.85;;
60979;SDS011;46851;49.160;8.980;2023-04-25T11:55:36;11.52;;;5.85;;
60979;SDS011;46851;49.160;8.980;2023-04-25T11:58:02;13.68;;;6.05;;
60979;SDS011;46851;49.160;8.980;2023-04-25T12:00:29;14.93;;;6.28;;
60979;SDS011;46851;49.160;8.980;2023-04-25T12:02:56;25.48;;;7.28;;
60979;SDS011;46851;49.160;8.980;2023-04-25T12:07:51;10.52;;;5.80;;
60979;SDS011;46851;49.160;8.980;2023-04-25T12:10:17;13.32;;;6.05;;
60979;SDS011;46851;49.160;8.980;2023-04-25T12:12:45;13.63;;;5.60;;
60979;SDS011;46851;49.160;8.980;2023-04-25T12:15:12;11.70;;;5.82;;
60979;SDS011;46851;49.160;8.980;2023-04-25T12:17:40;12.53;;;6.27;;
60979;SDS011;46851;49.160;8.980;2023-04-25T12:20:07;9.02;;;5.20;;
60979;SDS011;46851;49.160;8.980;2023-04-25T12:22:34;36.63;;;7.25;;
60979;SDS011;46851;49.160;8.980;2023-04-25T12:25:01;11.95;;;5.68;;
60979;SDS011;46851;49.160;8.980;2023-04-25T12:27:30;14.38;;;5.85;;
60979;SDS011;46851;49.160;8.980;2023-04-25T12:29:56;12.32;;;5.70;;
60979;SDS011;46851;49.160;8.980;2023-04-25T12:32:22;13.45;;;6.95;;
60979;SDS011;46851;49.160;8.980;2023-04-25T12:34:49;16.90;;;6.00;;
60979;SDS011;46851;49.160;8.980;2023-04-25T12:37:15;14.20;;;5.50;;
60979;SDS011;46851;49.160;8.980;2023-04-25T12:39:41;14.40;;;7.07;;
60979;SDS011;46851;49.160;8.980;2023-04-25T12:42:07;12.95;;;5.65;;
60979;SDS011;46851;49.160;8.980;2023-04-25T12:44:36;14.27;;;6.05;;
60979;SDS011;46851;49.160;8.980;2023-04-25T12:47:02;13.10;;;5.63;;
60979;SDS011;46851;49.160;8.980;2023-04-25T12:49:28;16.33;;;6.22;;
60979;SDS011;46851;49.160;8.980;2023-04-25T12:51:54;11.52;;;5.55;;
60979;SDS011;46851;49.160;8.980;2023-04-25T12:54:20;12.10;;;5.75;;
60979;SDS011;46851;49.160;8.980;2023-04-25T12:56:46;17.30;;;5.78;;
60979;SDS011;46851;49.160;8.980;2023-04-25T12:59:12;14.50;;;6.30;;
60979;SDS011;46851;49.160;8.980;2023-04-25T13:01:39;16.40;;;5.97;;
60979;SDS011;46851;49.160;8.980;2023-04-25T13:04:05;14.30;;;6.88;;
60979;SDS011;46851;49.160;8.980;2023-04-25T13:06:31;15.60;;;6.32;;
60979;SDS011;46851;49.160;8.980;2023-04-25T13:08:57;11.88;;;5.82;;
60979;SDS011;46851;49.160;8.980;2023-04-25T13:11:23;29.17;;;7.13;;
60979;SDS011;46851;49.160;8.980;2023-04-25T13:13:49;9.35;;;4.75;;
60979;SDS011;46851;49.160;8.980;2023-04-25T13:16:14;15.00;;;5.55;;
60979;SDS011;46851;49.160;8.980;2023-04-25T13:18:41;13.88;;;5.70;;
60979;SDS011;46851;49.160;8.980;2023-04-25T13:21:07;13.68;;;5.63;;
60979;SDS011;46851;49.160;8.980;2023-04-25T13:23:34;12.35;;;6.05;;
60979;SDS011;46851;49.160;8.980;2023-04-25T13:26:00;9.57;;;4.50;;
60979;SDS011;46851;49.160;8.980;2023-04-25T13:28:27;8.80;;;4.63;;
60979;SDS011;46851;49.160;8.980;2023-04-25T13:30:53;11.13;;;4.90;;
60979;SDS011;46851;49.160;8.980;2023-04-25T13:33:19;7.18;;;4.88;;
60979;SDS011;46851;49.160;8.980;2023-04-25T13:35:46;8.73;;;4.53;;
60979;SDS011;46851;49.160;8.980;2023-04-25T13:38:18;16.50;;;4.80;;
60979;SDS011;46851;49.160;8.980;2023-04-25T13:40:44;11.50;;;4.50;;
60979;SDS011;46851;49.160;8.980;2023-04-25T13:43:10;6.90;;;4.05;;
60979;SDS011;46851;49.160;8.980;2023-04-25T13:45:36;9.50;;;4.35;;
60979;SDS011;46851;49.160;8.980;2023-04-25T13:48:02;8.18;;;4.07;;
60979;SDS011;46851;49.160;8.980;2023-04-25T13:50:28;7.00;;;3.80;;
60979;SDS011;46851;49.160;8.980;2023-04-25T13:52:55;7.05;;;4.10;;
60979;SDS011;46851;49.160;8.980;2023-04-25T13:55:21;8.93;;;4.40;;
60979;SDS011;46851;49.160;8.980;2023-04-25T13:57:47;6.85;;;4.22;;
60979;SDS011;46851;49.160;8.980;2023-04-25T14:00:13;8.48;;;3.70;;
60979;SDS011;46851;49.160;8.980;2023-04-25T14:02:39;9.32;;;4.35;;
60979;SDS011;46851;49.160;8.980;2023-04-25T14:05:05;6.30;;;3.75;;
60979;SDS011;46851;49.160;8.980;2023-04-25T14:07:32;6.35;;;3.63;;
60979;SDS011;46851;49.160;8.980;2023-04-25T14:09:58;9.27;;;4.30;;
60979;SDS011;46851;49.160;8.980;2023-04-25T14:12:24;7.07;;;3.55;;
60979;SDS011;46851;49.160;8.980;2023-04-25T14:14:51;6.97;;;4.00;;
60979;SDS011;46851;49.160;8.980;2023-04-25T14:17:18;11.90;;;4.90;;
60979;SDS011;46851;49.160;8.980;2023-04-25T14:19:44;10.82;;;4.38;;
60979;SDS011;46851;49.160;8.980;2023-04-25T14:22:12;10.18;;;4.93;;
60979;SDS011;46851;49.160;8.980;2023-04-25T14:24:38;7.20;;;4.45;;
60979;SDS011;46851;49.160;8.980;2023-04-25T14:27:04;8.65;;;4.65;;
60979;SDS011;46851;49.160;8.980;2023-04-25T14:29:31;9.95;;;4.50;;
60979;SDS011;46851;49.160;8.980;2023-04-25T14:31:57;12.30;;;4.38;;
60979;SDS011;46851;49.160;8.980;2023-04-25T14:34:24;10.05;;;4.38;;
60979;SDS011;46851;49.160;8.980;2023-04-25T14:36:51;9.55;;;4.05;;
60979;SDS011;46851;49.160;8.980;2023-04-25T14:39:17;9.43;;;5.18;;
60979;SDS011;46851;49.160;8.980;2023-04-25T14:41:43;12.23;;;4.90;;
60979;SDS011;46851;49.160;8.980;2023-04-25T14:44:09;9.30;;;4.53;;
60979;SDS011;46851;49.160;8.980;2023-04-25T14:46:35;6.20;;;4.38;;
60979;SDS011;46851;49.160;8.980;2023-04-25T14:49:02;6.50;;;4.32;;
60979;SDS011;46851;49.160;8.980;2023-04-25T14:51:28;8.65;;;4.15;;
60979;SDS011;46851;49.160;8.980;2023-04-25T14:53:54;7.97;;;4.18;;
60979;SDS011;46851;49.160;8.980;2023-04-25T14:56:20;8.52;;;4.32;;
60979;SDS011;46851;49.160;8.980;2023-04-25T14:58:47;11.48;;;4.50;;
60979;SDS011;46851;49.160;8.980;2023-04-25T15:01:13;8.45;;;3.75;;
60979;SDS011;46851;49.160;8.980;2023-04-25T15:03:39;9.98;;;4.10;;
60979;SDS011;46851;49.160;8.980;2023-04-25T15:06:05;8.70;;;3.42;;
60979;SDS011;46851;49.160;8.980;2023-04-25T15:08:32;5.35;;;3.50;;
60979;SDS011;46851;49.160;8.980;2023-04-25T15:10:58;8.77;;;4.13;;
60979;SDS011;46851;49.160;8.980;2023-04-25T15:13:24;6.28;;;5.05;;
60979;SDS011;46851;49.160;8.980;2023-04-25T15:15:50;9.48;;;5.03;;
60979;SDS011;46851;49.160;8.980;2023-04-25T15:18:19;9.55;;;4.10;;
60979;SDS011;46851;49.160;8.980;2023-04-25T15:20:47;6.57;;;4.43;;
60979;SDS011;46851;49.160;8.980;2023-04-25T15:23:13;8.13;;;4.22;;
60979;SDS011;46851;49.160;8.980;2023-04-25T15:25:39;8.15;;;4.45;;
60979;SDS011;46851;49.160;8.980;2023-04-25T15:28:05;8.38;;;4.70;;
60979;SDS011;46851;49.160;8.980;2023-04-25T15:30:31;7.93;;;4.22;;
60979;SDS011;46851;49.160;8.980;2023-04-25T15:32:57;7.32;;;3.47;;
60979;SDS011;46851;49.160;8.980;2023-04-25T15:35:23;6.72;;;3.55;;
60979;SDS011;46851;49.160;8.980;2023-04-25T15:37:49;7.32;;;3.60;;